TimeEDT,TemperatureF,Dew PointF,Humidity,Sea Level PressureIn,VisibilityMPH,Wind Direction,Wind SpeedMPH,Gust SpeedMPH,PrecipitationIn,Events,Conditions,WindDirDegrees,DateUTC
12:54 AM,51.1,32.0,48,30.21,10.0,SSE,13.8,-,N/A,,Clear,160,2013-04-07 04:54:00
1:54 AM,50.0,36.0,59,30.20,10.0,South,15.0,-,N/A,,Clear,170,2013-04-07 05:54:00
2:54 AM,48.9,37.0,64,30.19,10.0,South,11.5,-,N/A,,Clear,170,2013-04-07 06:54:00
3:54 AM,46.9,37.9,71,30.19,10.0,South,9.2,-,N/A,,Clear,180,2013-04-07 07:54:00
4:54 AM,46.0,37.0,71,30.20,10.0,South,4.6,-,N/A,,Clear,190,2013-04-07 08:54:00
5:54 AM,44.1,36.0,73,30.22,10.0,SSW,3.5,-,N/A,,Clear,200,2013-04-07 09:54:00
6:54 AM,43.0,35.1,74,30.23,10.0,South,5.8,-,N/A,,Clear,180,2013-04-07 10:54:00
7:54 AM,46.0,37.0,71,30.24,10.0,South,8.1,-,N/A,,Clear,180,2013-04-07 11:54:00
8:54 AM,48.9,37.9,66,30.24,10.0,SSW,8.1,-,N/A,,Clear,200,2013-04-07 12:54:00
9:54 AM,53.1,37.9,57,30.24,10.0,SSW,9.2,-,N/A,,Clear,200,2013-04-07 13:54:00
10:54 AM,57.9,37.9,47,30.24,10.0,SW,13.8,-,N/A,,Clear,220,2013-04-07 14:54:00
11:54 AM,61.0,39.0,44,30.22,10.0,SW,10.4,19.6,N/A,,Clear,230,2013-04-07 15:54:00
12:54 PM,64.0,37.9,38,30.20,10.0,SSW,11.5,-,N/A,,Clear,200,2013-04-07 16:54:00
1:54 PM,68.0,37.9,33,30.16,10.0,SSW,18.4,-,N/A,,Clear,200,2013-04-07 17:54:00
2:54 PM,69.1,39.0,33,30.12,10.0,SW,17.3,24.2,N/A,,Clear,220,2013-04-07 18:54:00
3:54 PM,70.0,37.9,31,30.11,10.0,WSW,12.7,20.7,N/A,,Clear,250,2013-04-07 19:54:00
4:54 PM,70.0,39.0,32,30.09,10.0,South,16.1,23.0,N/A,,Partly Cloudy,190,2013-04-07 20:54:00
5:54 PM,69.1,39.0,33,30.09,10.0,SSW,15.0,-,N/A,,Partly Cloudy,200,2013-04-07 21:54:00
6:54 PM,68.0,37.9,33,30.09,10.0,SSW,10.4,-,N/A,,Partly Cloudy,210,2013-04-07 22:54:00
7:54 PM,64.0,39.9,41,30.10,10.0,SSW,8.1,-,N/A,,Partly Cloudy,210,2013-04-07 23:54:00
8:54 PM,62.1,41.0,46,30.11,10.0,WSW,3.5,-,N/A,,Clear,240,2013-04-08 00:54:00
9:54 PM,60.1,42.1,51,30.12,10.0,South,3.5,-,N/A,,Clear,170,2013-04-08 01:54:00
10:54 PM,59.0,43.0,55,30.10,10.0,South,3.5,-,N/A,,Clear,190,2013-04-08 02:54:00
11:54 PM,57.0,44.1,62,30.10,10.0,South,5.8,-,N/A,,Clear,190,2013-04-08 03:54:00